createdAt,value
2019-04-04T00:00:10.171Z,6.14
2019-04-04T00:02:39.736Z,6.14
2019-04-04T00:05:09.199Z,6.15
2019-04-04T00:07:38.610Z,6.18
2019-04-04T00:10:07.960Z,6.24
2019-04-04T00:12:38.961Z,6.30
2019-04-04T00:15:08.349Z,6.36
2019-04-04T00:17:37.686Z,6.37
2019-04-04T00:20:07.826Z,6.40
2019-04-04T00:22:37.162Z,6.47
2019-04-04T00:25:09.779Z,6.52
2019-04-04T00:27:38.108Z,6.50
2019-04-04T00:30:08.451Z,6.58
2019-04-04T00:32:37.847Z,6.59
2019-04-04T00:35:07.294Z,6.60
2019-04-04T00:37:36.613Z,6.59
2019-04-04T00:40:10.887Z,6.59
2019-04-04T00:42:38.651Z,6.58
2019-04-04T00:45:08.036Z,6.60
2019-04-04T00:47:37.378Z,6.63
2019-04-04T00:50:08.113Z,6.62
2019-04-04T00:52:40.603Z,6.71
2019-04-04T00:55:09.272Z,6.75
2019-04-04T00:57:38.629Z,6.77
2019-04-04T01:00:09.209Z,6.76
2019-04-04T01:02:38.568Z,6.76
2019-04-04T01:05:08.045Z,6.77
2019-04-04T01:07:37.382Z,6.81
2019-04-04T01:10:09.860Z,6.85
2019-04-04T01:12:39.840Z,6.88
2019-04-04T01:15:09.181Z,6.87
2019-04-04T01:17:38.513Z,6.91
2019-04-04T01:20:10.856Z,6.90
2019-04-04T01:22:40.289Z,6.88
2019-04-04T01:25:09.626Z,6.88
2019-04-04T01:27:38.997Z,6.88
2019-04-04T01:30:11.867Z,6.87
2019-04-04T01:32:39.659Z,6.88
2019-04-04T01:35:09.007Z,6.82
2019-04-04T01:37:38.340Z,6.83
2019-04-04T01:40:07.745Z,6.85
2019-04-04T01:42:38.786Z,6.83
2019-04-04T01:45:08.448Z,6.82
2019-04-04T01:47:37.763Z,6.75
2019-04-04T01:50:07.460Z,6.65
2019-04-04T01:52:37.015Z,6.68
2019-04-04T01:55:06.913Z,6.63
2019-04-04T01:57:38.509Z,6.69
2019-04-04T02:00:10.031Z,6.73
2019-04-04T02:02:39.415Z,6.76
2019-04-04T02:05:08.752Z,6.76
2019-04-04T02:07:38.098Z,6.73
2019-04-04T02:10:08.572Z,6.69
2019-04-04T02:12:39.228Z,6.76
2019-04-04T02:15:13.789Z,6.75
2019-04-04T02:17:42.935Z,6.74
2019-04-04T02:20:12.261Z,6.77
2019-04-04T02:22:41.596Z,6.80
2019-04-04T02:25:10.941Z,6.82
2019-04-04T02:27:40.311Z,6.84
2019-04-04T02:30:14.586Z,6.87
2019-04-04T02:32:41.127Z,6.87
2019-04-04T02:35:11.585Z,6.88
2019-04-04T02:37:41.097Z,6.91
2019-04-04T02:40:10.959Z,6.93
2019-04-04T02:42:40.288Z,6.94
2019-04-04T02:45:09.634Z,6.94
2019-04-04T02:47:38.990Z,6.97
2019-04-04T02:50:08.781Z,7.00
2019-04-04T02:52:38.144Z,7.02
2019-04-04T02:55:07.486Z,7.01
2019-04-04T02:57:41.065Z,6.98
2019-04-04T03:00:07.965Z,6.98
2019-04-04T03:02:37.286Z,7.01
2019-04-04T03:05:06.948Z,7.02
2019-04-04T03:07:36.343Z,7.01
2019-04-04T03:10:06.222Z,7.02
2019-04-04T03:12:35.567Z,7.03
2019-04-04T03:15:09.367Z,7.03
2019-04-04T03:17:39.160Z,7.05
2019-04-04T03:20:08.515Z,7.01
2019-04-04T03:22:38.018Z,7.01
2019-04-04T03:25:07.381Z,7.00
2019-04-04T03:27:36.723Z,6.98
2019-04-04T03:30:14.450Z,6.98
2019-04-04T03:32:40.116Z,7.00
2019-04-04T03:35:09.512Z,6.98
2019-04-04T03:37:40.968Z,6.96
2019-04-04T03:40:10.012Z,6.98
2019-04-04T03:42:44.037Z,7.02
2019-04-04T03:45:10.422Z,7.03
2019-04-04T03:47:43.446Z,7.00
2019-04-04T03:50:10.841Z,6.98
2019-04-04T03:52:43.315Z,7.00
2019-04-04T03:55:11.352Z,7.03
2019-04-04T03:57:40.712Z,6.98
2019-04-04T04:00:10.055Z,6.95
2019-04-04T04:02:39.392Z,6.98
2019-04-04T04:05:27.340Z,7.04
2019-04-04T04:07:56.701Z,7.05
2019-04-04T04:10:26.038Z,7.04
2019-04-04T04:12:55.536Z,7.04
2019-04-04T04:15:29.172Z,7.03
2019-04-04T04:17:56.027Z,7.00
2019-04-04T04:20:25.370Z,7.01
2019-04-04T04:22:54.709Z,7.06
2019-04-04T04:25:24.050Z,7.06
2019-04-04T04:27:53.382Z,7.00
2019-04-04T04:30:22.727Z,7.01
2019-04-04T04:32:55.542Z,7.02
2019-04-04T04:35:23.128Z,7.04
2019-04-04T04:37:53.660Z,7.07
2019-04-04T04:40:23.291Z,7.07
2019-04-04T04:42:52.652Z,7.03
2019-04-04T04:45:22.068Z,6.96
2019-04-04T04:47:55.899Z,7.01
2019-04-04T04:50:22.481Z,7.07
2019-04-04T04:52:51.831Z,7.10
2019-04-04T04:55:21.232Z,7.12
2019-04-04T04:57:50.581Z,7.12
2019-04-04T05:00:19.929Z,7.11
2019-04-04T05:02:51.062Z,7.13
2019-04-04T05:05:20.493Z,7.11
2019-04-04T05:07:49.835Z,7.07
2019-04-04T05:10:19.218Z,7.01
2019-04-04T05:12:48.547Z,7.06
2019-04-04T05:15:17.906Z,7.65
2019-04-04T05:17:47.244Z,8.44
2019-04-04T05:20:16.581Z,9.00
2019-04-04T05:22:45.970Z,9.38
2019-04-04T05:25:15.357Z,9.75
2019-04-04T05:27:44.706Z,10.16
2019-04-04T05:30:16.112Z,10.40
2019-04-04T05:32:45.151Z,10.55
2019-04-04T05:35:15.228Z,10.59
2019-04-04T05:37:44.755Z,10.76
2019-04-04T05:40:14.148Z,10.94
2019-04-04T05:42:43.490Z,11.08
2019-04-04T05:45:14.439Z,10.62
2019-04-04T05:47:44.449Z,10.02
2019-04-04T05:50:16.292Z,9.63
2019-04-04T05:52:44.845Z,9.23
2019-04-04T05:55:14.216Z,8.95
2019-04-04T05:57:43.533Z,8.82
2019-04-04T06:00:14.398Z,9.01
2019-04-04T06:02:43.969Z,9.40
2019-04-04T06:05:13.404Z,9.43
2019-04-04T06:07:42.798Z,9.17
2019-04-04T06:10:12.339Z,8.87
2019-04-04T06:12:41.841Z,8.65
2019-04-04T06:15:11.182Z,8.46
2019-04-04T06:17:40.589Z,8.30
2019-04-04T06:20:09.945Z,8.17
2019-04-04T06:22:39.271Z,8.10
2019-04-04T06:25:08.636Z,8.02
2019-04-04T06:27:39.909Z,7.99
2019-04-04T06:30:09.184Z,7.91
2019-04-04T06:32:39.077Z,7.77
2019-04-04T06:35:08.806Z,7.58
2019-04-04T06:37:38.861Z,7.63
2019-04-04T06:40:08.918Z,7.68
2019-04-04T06:42:38.239Z,7.69
2019-04-04T06:45:07.747Z,7.74
2019-04-04T06:47:37.148Z,7.69
2019-04-04T06:50:08.040Z,7.66
2019-04-04T06:52:37.940Z,7.68
2019-04-04T06:55:07.821Z,7.64
2019-04-04T06:57:37.547Z,7.65
2019-04-04T07:00:08.978Z,7.68
2019-04-04T07:02:38.345Z,7.69
2019-04-04T07:05:10.762Z,7.73
2019-04-04T07:07:43.088Z,7.77
2019-04-04T07:10:11.396Z,7.77
2019-04-04T07:12:40.730Z,7.84
2019-04-04T07:15:12.522Z,7.90
2019-04-04T07:17:42.116Z,7.93
2019-04-04T07:20:11.450Z,7.98
2019-04-04T07:22:40.811Z,7.88
2019-04-04T07:25:10.143Z,7.91
2019-04-04T07:27:39.501Z,7.95
2019-04-04T07:30:08.889Z,7.86
2019-04-04T07:32:40.868Z,7.90
2019-04-04T07:35:09.466Z,7.91
2019-04-04T07:37:38.806Z,7.95
2019-04-04T07:40:08.353Z,7.94
2019-04-04T07:42:40.141Z,7.62
2019-04-04T07:45:09.167Z,7.56
2019-04-04T07:47:38.512Z,7.69
2019-04-04T07:50:07.987Z,7.93
2019-04-04T07:52:37.313Z,7.83
2019-04-04T07:55:10.850Z,7.76
2019-04-04T07:57:40.530Z,7.53
2019-04-04T08:00:10.019Z,7.55
2019-04-04T08:02:39.370Z,7.57
2019-04-04T08:05:09.634Z,7.54
2019-04-04T08:07:38.959Z,7.15
2019-04-04T08:10:19.821Z,7.31
2019-04-04T08:12:39.516Z,7.27
2019-04-04T08:15:08.851Z,7.15
2019-04-04T08:17:38.200Z,7.14
2019-04-04T08:20:07.537Z,7.17
2019-04-04T08:22:39.552Z,6.75
2019-04-04T08:25:07.946Z,6.81
2019-04-04T08:27:37.270Z,7.22
2019-04-04T08:30:07.949Z,7.25
2019-04-04T08:32:37.278Z,7.07
2019-04-04T08:35:08.041Z,6.97
2019-04-04T08:37:37.407Z,6.94
2019-04-04T08:40:08.933Z,6.68
2019-04-04T08:42:38.260Z,6.89
2019-04-04T08:45:08.381Z,7.09
2019-04-04T08:47:37.707Z,6.82
2019-04-04T08:50:07.165Z,6.81
2019-04-04T08:52:36.553Z,7.11
2019-04-04T08:55:07.639Z,7.19
2019-04-04T08:57:36.983Z,7.02
2019-04-04T09:00:08.259Z,7.08
2019-04-04T09:02:37.706Z,7.12
2019-04-04T09:05:12.308Z,7.22
2019-04-04T09:07:38.739Z,7.32
2019-04-04T09:10:09.168Z,7.50
2019-04-04T09:12:38.538Z,7.48
2019-04-04T09:15:08.157Z,7.32
2019-04-04T09:17:37.504Z,7.18
2019-04-04T09:20:09.589Z,7.08
2019-04-04T09:22:40.936Z,7.31
2019-04-04T09:25:10.729Z,7.49
2019-04-04T09:27:40.209Z,7.45
2019-04-04T09:30:09.885Z,7.52
2019-04-04T09:32:39.214Z,7.25
2019-04-04T09:35:08.553Z,7.20
2019-04-04T09:37:37.900Z,7.41
2019-04-04T09:40:07.687Z,7.75
2019-04-04T09:42:37.016Z,7.80
2019-04-04T09:45:08.757Z,7.74
2019-04-04T09:47:38.208Z,7.80
2019-04-04T09:50:07.842Z,7.63
2019-04-04T09:52:37.179Z,7.42
2019-04-04T09:55:10.326Z,7.48
2019-04-04T09:57:39.639Z,7.66
2019-04-04T10:00:14.331Z,7.85
2019-04-04T10:02:43.652Z,7.66
2019-04-04T10:05:13.518Z,7.82
2019-04-04T10:07:42.857Z,7.85
2019-04-04T10:10:13.376Z,8.11
2019-04-04T10:12:43.416Z,8.29
2019-04-04T10:15:14.107Z,8.32
2019-04-04T10:17:43.827Z,8.27
2019-04-04T10:20:13.230Z,8.14
2019-04-04T10:22:43.442Z,8.20
2019-04-04T10:25:12.794Z,8.06
2019-04-04T10:27:42.168Z,8.42
2019-04-04T10:30:11.580Z,8.57
2019-04-04T10:32:40.903Z,8.62
2019-04-04T10:35:10.222Z,8.43
2019-04-04T10:37:39.566Z,8.59
2019-04-04T10:40:08.896Z,8.70
2019-04-04T10:42:38.252Z,8.83
2019-04-04T10:45:08.637Z,8.84
2019-04-04T10:47:37.961Z,8.53
2019-04-04T10:50:09.219Z,8.68
2019-04-04T10:52:38.643Z,8.62
2019-04-04T10:55:07.993Z,8.82
2019-04-04T10:57:37.332Z,8.72
2019-04-04T11:00:09.671Z,8.62
2019-04-04T11:02:39.049Z,8.60
2019-04-04T11:05:08.357Z,8.48
2019-04-04T11:07:37.719Z,8.73
2019-04-04T11:10:07.115Z,8.98
2019-04-04T11:12:36.474Z,8.86
2019-04-04T11:15:07.090Z,8.86
2019-04-04T11:17:38.054Z,8.97
2019-04-04T11:20:07.586Z,9.01
2019-04-04T11:22:36.915Z,8.98
2019-04-04T11:25:06.795Z,9.05
2019-04-04T11:27:36.223Z,9.04
2019-04-04T11:30:07.853Z,8.93
2019-04-04T11:32:37.209Z,8.95
2019-04-04T11:35:07.624Z,9.01
2019-04-04T11:37:36.948Z,8.94
2019-04-04T11:40:06.301Z,8.97
2019-04-04T11:42:35.711Z,8.92
2019-04-04T11:45:05.699Z,8.82
2019-04-04T11:47:35.147Z,8.79
2019-04-04T11:50:06.700Z,8.78
2019-04-04T11:52:36.042Z,8.75
2019-04-04T11:55:05.855Z,8.64
2019-04-04T11:57:35.259Z,8.62
2019-04-04T12:00:08.741Z,8.59
2019-04-04T12:02:38.083Z,8.58
2019-04-04T12:05:08.360Z,8.59
2019-04-04T12:07:38.518Z,8.78
2019-04-04T12:10:08.409Z,8.84
2019-04-04T12:12:37.849Z,8.91
2019-04-04T12:15:08.536Z,9.01
2019-04-04T12:17:37.905Z,9.11
2019-04-04T12:20:07.698Z,9.15
2019-04-04T12:22:37.069Z,9.22
2019-04-04T12:25:07.241Z,9.30
2019-04-04T12:27:36.597Z,9.33
2019-04-04T12:30:08.809Z,9.35
2019-04-04T12:32:38.134Z,9.39
2019-04-04T12:35:07.506Z,9.46
2019-04-04T12:37:36.839Z,9.42
2019-04-04T12:40:19.888Z,9.45
2019-04-04T12:42:39.295Z,9.48
2019-04-04T12:45:09.368Z,9.56
2019-04-04T12:47:38.886Z,9.70
2019-04-04T12:50:08.199Z,9.80
2019-04-04T12:52:37.562Z,9.87
2019-04-04T12:55:07.350Z,9.89
2019-04-04T12:57:36.757Z,10.04
2019-04-04T13:00:09.913Z,10.10
2019-04-04T13:02:39.253Z,10.35
2019-04-04T13:05:09.257Z,10.60
2019-04-04T13:07:38.625Z,10.85
2019-04-04T13:10:12.138Z,10.99
2019-04-04T13:12:41.662Z,11.13
2019-04-04T13:15:11.017Z,11.07
2019-04-04T13:17:40.391Z,11.29
2019-04-04T13:20:09.780Z,11.33
2019-04-04T13:22:39.125Z,11.37
2019-04-04T13:25:09.108Z,10.98
2019-04-04T13:27:38.472Z,11.14
2019-04-04T13:30:10.471Z,11.15
2019-04-04T13:32:39.819Z,11.22
2019-04-04T13:35:09.865Z,11.25
2019-04-04T13:37:39.218Z,11.28
2019-04-04T13:40:08.580Z,11.36
2019-04-04T13:42:37.928Z,11.38
2019-04-04T13:45:07.558Z,11.60
2019-04-04T13:47:39.378Z,11.57
2019-04-04T13:50:08.947Z,11.52
2019-04-04T13:52:38.533Z,11.41
2019-04-04T13:55:07.870Z,11.35
2019-04-04T13:57:39.235Z,11.28
2019-04-04T14:00:08.986Z,11.13
2019-04-04T14:02:38.378Z,11.02
2019-04-04T14:05:11.481Z,11.07
2019-04-04T14:07:43.498Z,11.04
2019-04-04T14:10:11.507Z,11.04
2019-04-04T14:12:40.847Z,10.93
2019-04-04T14:15:12.975Z,10.97
2019-04-04T14:17:43.667Z,11.04
2019-04-04T14:20:12.689Z,11.04
2019-04-04T14:22:42.036Z,11.02
2019-04-04T14:25:11.442Z,11.00
2019-04-04T14:27:40.794Z,11.00
2019-04-04T14:30:10.143Z,10.92
2019-04-04T14:32:39.485Z,10.86
2019-04-04T14:35:08.894Z,10.81
2019-04-04T14:37:38.241Z,10.68
2019-04-04T14:40:07.708Z,10.56
2019-04-04T14:42:37.050Z,10.48
2019-04-04T14:45:07.094Z,10.37
2019-04-04T14:47:36.426Z,10.31
2019-04-04T14:50:07.467Z,10.21
2019-04-04T14:52:39.375Z,10.11
2019-04-04T14:55:08.247Z,10.07
2019-04-04T14:57:37.566Z,10.06
2019-04-04T15:00:09.909Z,10.07
2019-04-04T15:02:39.243Z,9.98
2019-04-04T15:05:08.645Z,10.08
2019-04-04T15:07:37.998Z,10.09
2019-04-04T15:10:07.368Z,10.00
2019-04-04T15:12:36.703Z,9.72
2019-04-04T15:15:07.055Z,9.65
2019-04-04T15:17:36.389Z,9.61
2019-04-04T15:20:08.607Z,9.60
2019-04-04T15:22:37.240Z,9.43
2019-04-04T15:25:06.613Z,9.30
2019-04-04T15:27:35.958Z,9.20
2019-04-04T15:30:07.993Z,9.19
2019-04-04T15:32:37.385Z,9.18
2019-04-04T15:35:07.021Z,9.25
2019-04-04T15:37:36.354Z,9.26
2019-04-04T15:40:07.386Z,9.36
2019-04-04T15:42:36.770Z,9.52
2019-04-04T15:45:07.292Z,9.65
2019-04-04T15:47:36.619Z,9.82
2019-04-04T15:50:07.852Z,9.80
2019-04-04T15:52:37.210Z,10.01
2019-04-04T15:55:06.541Z,10.25
2019-04-04T15:57:35.908Z,10.34
2019-04-04T16:00:07.561Z,10.47
2019-04-04T16:02:36.902Z,10.65
2019-04-04T16:05:08.266Z,10.77
2019-04-04T16:07:37.610Z,11.01
2019-04-04T16:10:07.910Z,11.12
2019-04-04T16:12:37.251Z,11.11
2019-04-04T16:15:07.863Z,11.23
2019-04-04T16:17:37.223Z,11.27
2019-04-04T16:20:10.419Z,11.28
2019-04-04T16:22:39.784Z,11.34
2019-04-04T16:25:09.134Z,11.45
2019-04-04T16:27:38.466Z,11.49
2019-04-04T16:30:11.918Z,11.48
2019-04-04T16:32:41.257Z,11.48
2019-04-04T16:35:10.669Z,11.67
2019-04-04T16:37:40.001Z,12.06
2019-04-04T16:40:09.926Z,12.67
2019-04-04T16:42:39.534Z,12.99
2019-04-04T16:45:09.377Z,13.09
2019-04-04T16:47:38.739Z,13.25
2019-04-04T16:50:08.075Z,13.11
2019-04-04T16:52:37.406Z,12.94
2019-04-04T16:55:08.098Z,12.73
2019-04-04T16:57:37.442Z,12.53
2019-04-04T17:00:10.785Z,12.42
2019-04-04T17:02:40.130Z,12.32
2019-04-04T17:05:11.071Z,12.15
2019-04-04T17:07:40.700Z,12.06
2019-04-04T17:10:10.106Z,11.88
2019-04-04T17:12:39.473Z,11.65
2019-04-04T17:15:08.866Z,11.59
2019-04-04T17:17:38.206Z,11.55
2019-04-04T17:20:08.021Z,11.53
2019-04-04T17:22:37.363Z,11.35
2019-04-04T17:25:07.385Z,11.22
2019-04-04T17:27:37.302Z,11.07
2019-04-04T17:30:08.296Z,10.98
2019-04-04T17:32:37.799Z,10.95
2019-04-04T17:35:07.808Z,10.89
2019-04-04T17:37:37.169Z,10.81
2019-04-04T17:40:07.458Z,10.71
2019-04-04T17:42:36.975Z,10.67
2019-04-04T17:45:09.514Z,10.57
2019-04-04T17:47:38.822Z,10.44
2019-04-04T17:50:10.940Z,10.39
2019-04-04T17:52:39.562Z,10.34
2019-04-04T17:55:09.270Z,10.23
2019-04-04T17:57:39.169Z,10.20
2019-04-04T18:00:09.422Z,10.13
2019-04-04T18:02:38.790Z,10.03
2019-04-04T18:05:10.335Z,9.98
2019-04-04T18:07:39.648Z,9.91
2019-04-04T18:10:09.020Z,9.82
2019-04-04T18:12:40.574Z,9.74
2019-04-04T18:15:10.188Z,9.65
2019-04-04T18:17:39.517Z,9.56
2019-04-04T18:20:09.169Z,9.46
2019-04-04T18:22:38.530Z,9.36
2019-04-04T18:25:08.210Z,9.19
2019-04-04T18:27:37.586Z,9.10
2019-04-04T18:30:11.879Z,9.00
2019-04-04T18:32:41.278Z,8.93
2019-04-04T18:35:10.736Z,8.85
2019-04-04T18:37:40.319Z,8.74
2019-04-04T18:40:11.139Z,8.66
2019-04-04T18:42:52.193Z,8.60
2019-04-04T18:45:11.685Z,8.54
2019-04-04T18:47:41.036Z,8.44
2019-04-04T18:50:10.430Z,8.32
2019-04-04T18:52:39.795Z,8.22
2019-04-04T18:55:19.177Z,8.05
2019-04-04T18:57:40.695Z,7.91
2019-04-04T19:00:11.842Z,7.83
2019-04-04T19:02:41.488Z,7.66
2019-04-04T19:05:11.323Z,7.57
2019-04-04T19:07:40.657Z,7.50
2019-04-04T19:10:10.069Z,7.40
2019-04-04T19:12:39.421Z,7.30
2019-04-04T19:15:08.745Z,7.20
2019-04-04T19:17:38.090Z,7.11
2019-04-04T19:20:10.114Z,7.03
2019-04-04T19:22:39.744Z,6.95
2019-04-04T19:25:09.078Z,6.91
2019-04-04T19:27:38.421Z,6.80
2019-04-04T19:30:09.687Z,6.73
2019-04-04T19:32:39.022Z,6.68
2019-04-04T19:35:08.897Z,6.56
2019-04-04T19:37:38.247Z,6.50
2019-04-04T19:40:07.792Z,6.48
2019-04-04T19:42:37.996Z,6.44
2019-04-04T19:45:08.987Z,6.40
2019-04-04T19:47:38.322Z,6.37
2019-04-04T19:50:10.911Z,6.32
2019-04-04T19:52:40.254Z,6.28
2019-04-04T19:55:09.612Z,6.26
2019-04-04T19:57:38.943Z,6.22
2019-04-04T20:00:09.347Z,6.18
2019-04-04T20:02:38.712Z,6.18
2019-04-04T20:05:08.308Z,6.13
2019-04-04T20:07:37.718Z,6.09
2019-04-04T20:10:07.928Z,6.04
2019-04-04T20:12:37.264Z,6.01
2019-04-04T20:15:07.926Z,6.01
2019-04-04T20:17:37.284Z,6.03
2019-04-04T20:20:09.445Z,5.99
2019-04-04T20:22:38.060Z,5.98
2019-04-04T20:25:08.066Z,5.91
2019-04-04T20:27:37.389Z,5.90
2019-04-04T20:30:09.661Z,5.85
2019-04-04T20:32:39.077Z,5.77
2019-04-04T20:35:08.675Z,5.73
2019-04-04T20:37:38.009Z,5.71
2019-04-04T20:40:07.562Z,5.69
2019-04-04T20:42:36.900Z,5.64
2019-04-04T20:45:07.441Z,5.61
2019-04-04T20:47:36.791Z,5.55
2019-04-04T20:50:07.066Z,5.53
2019-04-04T20:52:36.406Z,5.46
2019-04-04T20:55:06.890Z,5.44
2019-04-04T20:57:36.230Z,5.40
2019-04-04T21:00:07.105Z,5.39
2019-04-04T21:02:36.451Z,5.33
2019-04-04T21:05:08.957Z,5.27
2019-04-04T21:07:38.332Z,5.29
2019-04-04T21:10:08.014Z,5.29
2019-04-04T21:12:37.379Z,5.23
2019-04-04T21:15:07.680Z,5.19
2019-04-04T21:17:37.022Z,5.16
2019-04-04T21:20:07.819Z,5.12
2019-04-04T21:22:37.185Z,5.10
2019-04-04T21:25:06.926Z,5.09
2019-04-04T21:27:36.254Z,5.09
2019-04-04T21:30:07.893Z,5.01
2019-04-04T21:32:37.242Z,5.05
2019-04-04T21:35:07.457Z,5.05
2019-04-04T21:37:36.802Z,5.06
2019-04-04T21:40:06.422Z,5.05
2019-04-04T21:42:36.322Z,5.06
2019-04-04T21:45:07.326Z,5.05
2019-04-04T21:47:36.883Z,4.97
2019-04-04T21:50:07.584Z,4.90
2019-04-04T21:52:37.862Z,4.92
2019-04-04T21:55:07.305Z,4.94
2019-04-04T21:57:36.643Z,4.88
2019-04-04T22:00:07.943Z,4.88
2019-04-04T22:02:37.306Z,4.80
2019-04-04T22:05:08.329Z,4.79
2019-04-04T22:07:37.676Z,4.74
2019-04-04T22:10:10.045Z,4.65
2019-04-04T22:12:39.445Z,4.66
2019-04-04T22:15:08.985Z,4.70
2019-04-04T22:17:38.384Z,4.72
2019-04-04T22:20:07.822Z,4.72
2019-04-04T22:22:37.158Z,4.77
2019-04-04T22:25:07.557Z,4.68
2019-04-04T22:27:37.086Z,4.63
2019-04-04T22:30:09.178Z,4.54
2019-04-04T22:32:37.814Z,4.51
2019-04-04T22:35:07.449Z,4.44
2019-04-04T22:37:36.779Z,4.34
2019-04-04T22:40:09.074Z,4.31
2019-04-04T22:42:38.420Z,4.29
2019-04-04T22:45:08.256Z,4.30
2019-04-04T22:47:37.588Z,4.30
2019-04-04T22:50:07.550Z,4.37
2019-04-04T22:52:36.911Z,4.37
2019-04-04T22:55:06.246Z,4.28
2019-04-04T22:57:35.622Z,4.21
2019-04-04T23:00:08.218Z,4.16
2019-04-04T23:02:37.587Z,4.11
2019-04-04T23:05:07.381Z,4.14
2019-04-04T23:07:36.730Z,4.11
2019-04-04T23:10:07.803Z,4.08
2019-04-04T23:12:37.221Z,4.10
2019-04-04T23:15:09.378Z,4.14
2019-04-04T23:17:38.778Z,4.16
2019-04-04T23:20:10.043Z,4.05
2019-04-04T23:22:46.972Z,4.06
2019-04-04T23:25:11.045Z,4.04
2019-04-04T23:27:40.371Z,4.00
2019-04-04T23:30:09.807Z,4.05
2019-04-04T23:32:39.170Z,4.04
2019-04-04T23:35:08.548Z,4.01
2019-04-04T23:37:37.889Z,3.96
2019-04-04T23:40:07.260Z,3.97
2019-04-04T23:42:36.855Z,3.89
2019-04-04T23:45:09.160Z,3.85
2019-04-04T23:47:43.265Z,3.86
2019-04-04T23:50:10.356Z,3.87
2019-04-04T23:52:41.325Z,3.83
2019-04-04T23:55:10.681Z,3.74
2019-04-04T23:57:40.023Z,3.73
